createdAt,value
2022-12-29T00:02:14.365Z,100100.91
2022-12-29T00:04:46.304Z,100107.75
2022-12-29T00:07:18.946Z,100109.50
2022-12-29T00:09:50.963Z,100072.63
2022-12-29T00:12:22.979Z,100058.56
2022-12-29T00:15:13.462Z,100092.00
2022-12-29T00:17:45.520Z,100100.50
2022-12-29T00:20:36.434Z,100085.19
2022-12-29T00:23:28.165Z,100106.97
2022-12-29T00:26:31.303Z,100097.06
2022-12-29T00:29:22.339Z,100089.56
2022-12-29T00:32:12.977Z,100084.13
2022-12-29T00:35:03.579Z,100068.69
2022-12-29T00:38:00.390Z,100087.75
2022-12-29T00:40:51.161Z,100096.69
2022-12-29T00:43:41.711Z,100071.41
2022-12-29T00:46:19.666Z,100085.78
2022-12-29T00:49:11.039Z,100078.31
2022-12-29T00:51:43.050Z,100091.09
2022-12-29T00:54:16.495Z,100100.03
2022-12-29T00:56:51.498Z,100094.88
2022-12-29T00:59:25.329Z,100097.75
2022-12-29T01:01:58.312Z,100103.41
2022-12-29T01:04:30.484Z,100088.91
2022-12-29T01:07:02.717Z,100080.72
2022-12-29T01:09:53.138Z,100069.63
2022-12-29T01:12:43.510Z,100079.91
2022-12-29T01:15:16.230Z,100079.53
2022-12-29T01:17:48.431Z,100062.81
2022-12-29T01:20:20.423Z,100071.72
2022-12-29T01:22:52.377Z,100027.69
2022-12-29T01:25:24.881Z,100065.06
2022-12-29T01:27:56.807Z,100030.03
2022-12-29T01:30:28.837Z,100034.41
2022-12-29T01:33:00.675Z,100046.69
2022-12-29T01:35:32.840Z,100044.03
2022-12-29T01:38:04.761Z,100028.16
2022-12-29T01:40:45.000Z,100027.50
2022-12-29T01:43:16.924Z,100043.25
2022-12-29T01:45:55.929Z,100020.56
2022-12-29T01:48:28.040Z,100034.09
2022-12-29T01:50:59.995Z,100029.88
2022-12-29T01:53:34.979Z,100035.53
2022-12-29T01:56:13.170Z,100040.06
2022-12-29T01:58:48.548Z,100030.25
2022-12-29T02:01:21.342Z,100029.19
2022-12-29T02:03:53.649Z,100025.50
2022-12-29T02:06:41.473Z,99996.69
2022-12-29T02:09:13.360Z,100013.78
2022-12-29T02:11:47.145Z,100032.16
2022-12-29T02:14:19.459Z,100011.88
2022-12-29T02:17:16.043Z,100016.13
2022-12-29T02:20:18.000Z,100017.94
2022-12-29T02:23:03.393Z,100001.97
2022-12-29T02:25:38.209Z,100014.69
2022-12-29T02:28:28.764Z,100007.81
2022-12-29T02:31:55.207Z,99996.63
2022-12-29T02:34:48.937Z,100008.50
2022-12-29T02:37:28.447Z,100009.19
2022-12-29T02:40:21.742Z,99998.88
2022-12-29T02:43:29.355Z,100004.72
2022-12-29T02:46:17.118Z,100015.38
2022-12-29T02:48:59.042Z,100007.38
2022-12-29T02:51:41.393Z,100019.47
2022-12-29T02:54:32.132Z,100009.25
2022-12-29T02:57:04.616Z,100027.09
2022-12-29T02:59:37.144Z,99998.25
2022-12-29T03:02:33.642Z,100029.59
2022-12-29T03:05:16.992Z,100024.09
2022-12-29T03:08:12.804Z,100030.22
2022-12-29T03:10:59.804Z,100038.84
2022-12-29T03:14:04.899Z,100028.41
2022-12-29T03:16:46.644Z,100019.03
2022-12-29T03:19:26.424Z,100033.25
2022-12-29T03:22:32.032Z,100028.84
2022-12-29T03:25:22.292Z,100032.56
2022-12-29T03:28:02.168Z,100029.31
2022-12-29T03:30:37.133Z,100023.84
2022-12-29T03:33:13.602Z,100036.78
2022-12-29T03:35:50.397Z,100027.41
2022-12-29T03:38:51.607Z,100045.09
2022-12-29T03:41:27.967Z,100028.91
2022-12-29T03:43:59.918Z,100014.78
2022-12-29T03:46:31.861Z,100002.97
2022-12-29T03:49:04.082Z,100004.44
2022-12-29T03:51:36.079Z,99970.22
2022-12-29T03:54:08.059Z,99983.34
2022-12-29T03:56:40.074Z,99980.22
2022-12-29T03:59:12.008Z,99975.84
2022-12-29T04:01:44.372Z,99968.06
2022-12-29T04:04:16.460Z,99937.06
2022-12-29T04:06:49.668Z,99930.47
2022-12-29T04:09:21.659Z,99922.78
2022-12-29T04:11:53.669Z,99952.25
2022-12-29T04:14:25.686Z,99949.16
2022-12-29T04:16:57.616Z,99923.22
2022-12-29T04:19:29.564Z,99930.84
2022-12-29T04:22:01.543Z,99944.31
2022-12-29T04:24:33.532Z,99956.25
2022-12-29T04:27:05.530Z,99958.66
2022-12-29T04:29:37.441Z,99931.66
2022-12-29T04:32:09.298Z,99940.31
2022-12-29T04:34:41.142Z,99945.53
2022-12-29T04:37:13.088Z,99924.50
2022-12-29T04:39:44.931Z,99915.66
2022-12-29T04:42:16.797Z,99931.38
2022-12-29T04:44:50.252Z,99919.03
2022-12-29T04:47:22.151Z,99910.66
2022-12-29T04:49:54.019Z,99934.09
2022-12-29T04:52:25.888Z,99915.53
2022-12-29T04:54:57.755Z,99918.69
2022-12-29T04:57:29.681Z,99935.69
2022-12-29T05:00:01.549Z,99911.41
2022-12-29T05:02:33.532Z,99907.66
2022-12-29T05:05:06.632Z,99915.44
2022-12-29T05:07:38.571Z,99918.53
2022-12-29T05:10:10.734Z,99922.84
2022-12-29T05:12:42.858Z,99919.53
2022-12-29T05:15:14.825Z,99872.66
2022-12-29T05:17:46.843Z,99905.88
2022-12-29T05:20:18.885Z,99910.03
2022-12-29T05:22:50.889Z,99892.34
2022-12-29T05:25:22.875Z,99886.34
2022-12-29T05:27:54.827Z,99911.81
2022-12-29T05:30:26.783Z,99905.00
2022-12-29T05:32:58.696Z,99928.38
2022-12-29T05:35:30.775Z,99911.75
2022-12-29T05:38:02.696Z,99871.84
2022-12-29T05:40:34.742Z,99883.09
2022-12-29T05:43:06.685Z,99872.81
2022-12-29T05:45:39.713Z,99865.97
2022-12-29T05:48:11.568Z,99880.19
2022-12-29T05:50:43.463Z,99877.75
2022-12-29T05:53:15.436Z,99883.50
2022-12-29T05:55:50.860Z,99883.50
2022-12-29T05:58:22.769Z,99861.03
2022-12-29T06:00:54.723Z,99832.50
2022-12-29T06:03:26.759Z,99856.75
2022-12-29T06:05:58.828Z,99873.59
2022-12-29T06:08:30.716Z,99869.22
2022-12-29T06:11:02.543Z,99851.91
2022-12-29T06:13:34.489Z,99860.97
2022-12-29T06:16:06.877Z,99854.13
2022-12-29T06:18:38.753Z,99865.06
2022-12-29T06:21:10.657Z,99863.41
2022-12-29T06:23:42.509Z,99858.41
2022-12-29T06:26:14.358Z,99862.25
2022-12-29T06:28:46.239Z,99849.88
2022-12-29T06:31:18.121Z,99865.38
2022-12-29T06:33:50.402Z,99867.78
2022-12-29T06:36:22.314Z,99871.94
2022-12-29T06:38:54.476Z,99824.28
2022-12-29T06:41:32.015Z,99869.59
2022-12-29T06:44:04.411Z,99875.63
2022-12-29T06:46:36.265Z,99859.91
2022-12-29T06:49:08.143Z,99820.66
2022-12-29T06:51:40.298Z,99859.03
2022-12-29T06:54:12.240Z,99868.09
2022-12-29T06:56:44.239Z,99887.97
2022-12-29T06:59:16.176Z,99895.13
2022-12-29T07:01:49.630Z,99891.56
2022-12-29T07:04:21.521Z,99883.81
2022-12-29T07:06:53.398Z,99870.38
2022-12-29T07:09:25.248Z,99879.97
2022-12-29T07:11:57.149Z,99870.81
2022-12-29T07:14:29.120Z,99845.50
2022-12-29T07:17:01.080Z,99877.81
2022-12-29T07:19:36.072Z,99861.88
2022-12-29T07:22:07.976Z,99874.03
2022-12-29T07:24:39.830Z,99855.38
2022-12-29T07:27:11.915Z,99861.94
2022-12-29T07:29:43.783Z,99855.88
2022-12-29T07:32:15.660Z,99864.19
2022-12-29T07:34:48.663Z,99844.78
2022-12-29T07:37:21.198Z,99842.81
2022-12-29T07:39:53.155Z,99859.16
2022-12-29T07:42:25.040Z,99867.31
2022-12-29T07:44:57.146Z,99875.53
2022-12-29T07:47:29.102Z,99869.41
2022-12-29T07:50:00.986Z,99871.38
2022-12-29T07:52:32.923Z,99881.84
2022-12-29T07:55:05.537Z,99880.03
2022-12-29T07:57:37.487Z,99887.59
2022-12-29T08:00:11.210Z,99880.88
2022-12-29T08:02:43.257Z,99876.97
2022-12-29T08:05:15.324Z,99832.00
2022-12-29T08:07:47.787Z,99880.72
2022-12-29T08:10:20.318Z,99883.78
2022-12-29T08:12:52.177Z,99885.38
2022-12-29T08:15:30.469Z,99843.38
2022-12-29T08:18:04.725Z,99839.97
2022-12-29T08:20:36.640Z,99863.13
2022-12-29T08:23:08.553Z,99837.56
2022-12-29T08:25:40.396Z,99859.31
2022-12-29T08:28:12.365Z,99842.78
2022-12-29T08:30:44.378Z,99835.91
2022-12-29T08:33:16.583Z,99848.75
2022-12-29T08:35:48.587Z,99848.22
2022-12-29T08:38:20.551Z,99854.69
2022-12-29T08:40:52.937Z,99837.91
2022-12-29T08:43:25.571Z,99858.06
2022-12-29T08:45:59.434Z,99836.50
2022-12-29T08:48:31.327Z,99859.16
2022-12-29T08:51:03.248Z,99824.03
2022-12-29T08:53:36.204Z,99867.19
2022-12-29T08:56:10.196Z,99855.50
2022-12-29T08:58:42.097Z,99859.34
2022-12-29T09:01:14.074Z,99850.81
2022-12-29T09:06:40.704Z,99871.84
2022-12-29T09:09:13.399Z,99856.84
2022-12-29T09:11:45.425Z,99868.94
2022-12-29T09:14:17.546Z,99850.25
2022-12-29T09:17:10.392Z,99849.31
2022-12-29T09:19:43.046Z,99852.25
2022-12-29T09:22:14.990Z,99860.63
2022-12-29T09:24:47.093Z,99851.06
2022-12-29T09:27:19.029Z,99839.19
2022-12-29T09:29:51.321Z,99845.91
2022-12-29T09:32:23.739Z,99838.94
2022-12-29T09:34:56.803Z,99816.94
2022-12-29T09:37:29.024Z,99844.94
2022-12-29T09:40:01.003Z,99829.06
2022-12-29T09:42:40.673Z,99831.28
2022-12-29T09:45:20.260Z,99834.06
2022-12-29T09:47:52.468Z,99815.81
2022-12-29T09:50:30.136Z,99843.81
2022-12-29T09:53:22.883Z,99812.16
2022-12-29T09:56:00.110Z,99815.56
2022-12-29T09:58:40.719Z,99805.63
2022-12-29T10:01:29.874Z,99826.31
2022-12-29T10:04:04.483Z,99811.50
2022-12-29T10:07:27.417Z,99819.59
2022-12-29T10:09:54.819Z,99802.94
2022-12-29T10:12:44.918Z,99814.63
2022-12-29T10:15:44.528Z,99817.22
2022-12-29T10:18:42.787Z,99804.31
2022-12-29T10:21:30.363Z,99810.50
2022-12-29T10:24:07.822Z,99797.50
2022-12-29T10:26:43.248Z,99799.69
2022-12-29T10:29:22.967Z,99800.94
2022-12-29T10:32:27.068Z,99809.53
2022-12-29T10:35:23.950Z,99797.28
2022-12-29T10:38:11.172Z,99802.78
2022-12-29T10:41:19.660Z,99791.81
2022-12-29T10:43:54.495Z,99796.38
2022-12-29T10:46:34.560Z,99769.34
2022-12-29T10:49:13.644Z,99772.19
2022-12-29T10:51:53.300Z,99788.53
2022-12-29T10:54:48.171Z,99776.09
2022-12-29T10:57:34.259Z,99774.22
2022-12-29T11:00:23.236Z,99759.31
2022-12-29T11:02:58.100Z,99766.28
2022-12-29T11:05:42.496Z,99765.41
2022-12-29T11:08:20.324Z,99753.44
2022-12-29T11:11:04.572Z,99750.00
2022-12-29T11:13:49.619Z,99760.38
2022-12-29T11:16:34.096Z,99770.50
2022-12-29T11:19:06.585Z,99763.69
2022-12-29T11:21:43.588Z,99767.53
2022-12-29T11:24:24.164Z,99767.91
2022-12-29T11:27:15.702Z,99760.97
2022-12-29T11:29:48.139Z,99742.66
2022-12-29T11:32:28.821Z,99772.38
2022-12-29T11:35:02.256Z,99720.94
2022-12-29T11:37:40.422Z,99738.31
2022-12-29T11:40:22.495Z,99763.50
2022-12-29T11:42:58.129Z,99770.63
2022-12-29T11:45:48.145Z,99767.13
2022-12-29T11:48:22.742Z,99762.19
2022-12-29T11:51:00.773Z,99758.56
2022-12-29T11:53:38.405Z,99771.66
2022-12-29T11:56:14.609Z,99747.28
2022-12-29T11:58:46.476Z,99757.59
2022-12-29T12:01:25.369Z,99765.50
2022-12-29T12:04:03.371Z,99762.09
2022-12-29T12:06:45.355Z,99756.72
2022-12-29T12:09:30.334Z,99734.81
2022-12-29T12:12:04.671Z,99729.66
2022-12-29T12:14:45.065Z,99720.63
2022-12-29T12:17:39.632Z,99727.25
2022-12-29T12:20:25.715Z,99752.06
2022-12-29T12:23:20.192Z,99749.81
2022-12-29T12:26:19.208Z,99730.88
2022-12-29T12:29:20.496Z,99742.88
2022-12-29T12:32:30.162Z,99739.66
2022-12-29T12:35:03.273Z,99739.38
2022-12-29T12:37:44.856Z,99733.91
2022-12-29T12:40:47.164Z,99737.81
2022-12-29T12:43:42.360Z,99735.88
2022-12-29T12:46:32.521Z,99743.28
2022-12-29T12:49:16.995Z,99739.25
2022-12-29T12:52:05.390Z,99726.75
2022-12-29T12:55:03.497Z,99741.03
2022-12-29T12:57:55.259Z,99733.47
2022-12-29T13:00:33.584Z,99724.28
2022-12-29T13:03:27.516Z,99728.81
2022-12-29T13:06:08.840Z,99715.31
2022-12-29T13:08:43.646Z,99719.94
2022-12-29T13:11:26.303Z,99713.94
2022-12-29T13:14:01.283Z,99711.88
2022-12-29T13:16:50.518Z,99711.06
2022-12-29T13:19:34.207Z,99712.59
2022-12-29T13:22:25.879Z,99718.06
2022-12-29T13:25:00.626Z,99715.47
2022-12-29T13:27:48.284Z,99734.19
2022-12-29T13:31:00.013Z,99717.16
2022-12-29T13:33:43.300Z,99745.56
2022-12-29T13:36:27.240Z,99733.16
2022-12-29T13:39:21.506Z,99754.88
2022-12-29T13:41:56.113Z,99726.69
2022-12-29T13:44:36.292Z,99735.34
2022-12-29T13:47:17.676Z,99750.63
2022-12-29T13:49:51.426Z,99736.56
2022-12-29T13:52:39.920Z,99726.22
2022-12-29T13:55:37.104Z,99742.88
2022-12-29T13:58:27.967Z,99743.00
2022-12-29T14:01:04.358Z,99741.13
2022-12-29T14:03:57.795Z,99744.31
2022-12-29T14:06:41.734Z,99739.06
2022-12-29T14:09:41.589Z,99737.94
2022-12-29T14:12:34.621Z,99746.31
2022-12-29T14:15:12.476Z,99753.84
2022-12-29T14:17:45.429Z,99748.38
2022-12-29T14:20:22.693Z,99752.19
2022-12-29T14:23:17.292Z,99763.66
2022-12-29T14:25:58.663Z,99743.81
2022-12-29T14:28:33.033Z,99718.59
2022-12-29T14:31:26.106Z,99744.03
2022-12-29T14:34:07.166Z,99743.41
2022-12-29T14:36:43.002Z,99727.06
2022-12-29T14:39:41.577Z,99752.06
2022-12-29T14:42:23.895Z,99730.28
2022-12-29T14:45:14.120Z,99738.84
2022-12-29T14:47:51.738Z,99738.44
2022-12-29T14:50:31.830Z,99732.94
2022-12-29T14:53:09.708Z,99737.59
2022-12-29T14:55:51.103Z,99725.19
2022-12-29T14:58:39.260Z,99743.59
2022-12-29T15:01:34.365Z,99707.84
2022-12-29T15:04:22.312Z,99739.97
2022-12-29T15:06:54.990Z,99722.41
2022-12-29T15:09:32.529Z,99737.28
2022-12-29T15:12:25.507Z,99744.63
2022-12-29T15:15:00.037Z,99744.13
2022-12-29T15:17:34.750Z,99748.13
2022-12-29T15:20:29.584Z,99752.16
2022-12-29T15:23:19.947Z,99737.41
2022-12-29T15:25:57.366Z,99732.97
2022-12-29T15:28:42.231Z,99728.50
2022-12-29T15:31:18.717Z,99751.13
2022-12-29T15:33:53.411Z,99734.59
2022-12-29T15:36:28.293Z,99727.06
2022-12-29T15:39:00.199Z,99715.88
2022-12-29T15:42:05.381Z,99743.28
2022-12-29T15:44:47.275Z,99742.53
2022-12-29T15:47:27.329Z,99739.97
2022-12-29T15:50:27.884Z,99741.22
2022-12-29T15:53:00.757Z,99738.31
2022-12-29T15:55:36.630Z,99735.59
2022-12-29T15:58:29.644Z,99743.81
2022-12-29T16:01:03.116Z,99743.88
2022-12-29T16:03:38.366Z,99734.69
2022-12-29T16:06:10.566Z,99747.22
2022-12-29T16:08:42.533Z,99742.06
2022-12-29T16:11:36.765Z,99748.38
2022-12-29T16:14:33.673Z,99736.06
2022-12-29T16:17:06.117Z,99723.66
2022-12-29T16:19:42.300Z,99741.56
2022-12-29T16:22:24.069Z,99750.97
2022-12-29T16:25:05.131Z,99723.66
2022-12-29T16:27:43.555Z,99738.84
2022-12-29T16:30:33.654Z,99738.13
2022-12-29T16:33:06.912Z,99763.03
2022-12-29T16:35:44.912Z,99756.94
2022-12-29T16:38:24.187Z,99758.91
2022-12-29T16:40:57.142Z,99765.09
2022-12-29T16:43:32.553Z,99758.28
2022-12-29T16:46:19.437Z,99768.59
2022-12-29T16:48:54.803Z,99750.19
2022-12-29T16:51:36.603Z,99771.00
2022-12-29T16:54:20.830Z,99762.72
2022-12-29T16:56:53.698Z,99767.56
2022-12-29T16:59:43.803Z,99772.22
2022-12-29T17:02:20.723Z,99776.47
2022-12-29T17:04:54.114Z,99760.34
2022-12-29T17:07:29.087Z,99763.66
2022-12-29T17:10:01.138Z,99753.94
2022-12-29T17:12:35.815Z,99772.75
2022-12-29T17:15:36.474Z,99780.09
2022-12-29T17:18:13.902Z,99767.50
2022-12-29T17:20:46.213Z,99762.72
2022-12-29T17:23:24.472Z,99771.63
2022-12-29T17:25:58.431Z,99751.44
2022-12-29T17:28:32.595Z,99776.81
2022-12-29T17:31:07.298Z,99751.03
2022-12-29T17:33:42.894Z,99758.16
2022-12-29T17:36:14.887Z,99759.81
2022-12-29T17:38:47.323Z,99767.78
2022-12-29T17:41:19.367Z,99762.72
2022-12-29T17:43:51.320Z,99772.34
2022-12-29T17:46:23.335Z,99759.31
2022-12-29T17:48:55.755Z,99783.91
2022-12-29T17:51:27.839Z,99763.66
2022-12-29T17:53:59.974Z,99777.50
2022-12-29T17:56:31.978Z,99767.47
2022-12-29T17:59:03.949Z,99769.75
2022-12-29T18:01:39.054Z,99778.22
2022-12-29T18:04:16.960Z,99784.09
2022-12-29T18:06:49.069Z,99790.13
2022-12-29T18:09:22.975Z,99780.59
2022-12-29T18:11:54.913Z,99748.13
2022-12-29T18:14:26.854Z,99734.28
2022-12-29T18:16:58.791Z,99766.50
2022-12-29T18:19:35.919Z,99790.13
2022-12-29T18:22:09.036Z,99790.84
2022-12-29T18:24:40.913Z,99785.34
2022-12-29T18:27:15.444Z,99765.91
2022-12-29T18:29:47.472Z,99779.84
2022-12-29T18:32:19.870Z,99803.34
2022-12-29T18:34:51.869Z,99754.00
2022-12-29T18:37:24.017Z,99757.09
2022-12-29T18:39:57.559Z,99794.25
2022-12-29T18:42:29.726Z,99763.81
2022-12-29T18:45:01.664Z,99775.41
2022-12-29T18:47:33.647Z,99781.00
2022-12-29T18:50:06.006Z,99775.53
2022-12-29T18:52:38.140Z,99770.66
2022-12-29T18:55:36.125Z,99773.78
2022-12-29T18:58:08.305Z,99767.16
2022-12-29T19:00:40.850Z,99762.41
2022-12-29T19:03:14.827Z,99772.34
2022-12-29T19:05:49.310Z,99769.88
2022-12-29T19:08:21.301Z,99751.56
2022-12-29T19:10:53.562Z,99769.66
2022-12-29T19:13:29.526Z,99755.41
2022-12-29T19:16:02.062Z,99745.16
2022-12-29T19:19:05.881Z,99746.50
2022-12-29T19:21:25.816Z,99764.41
2022-12-29T19:23:57.663Z,99763.03
2022-12-29T19:26:32.523Z,99762.91
2022-12-29T19:29:06.902Z,99777.91
2022-12-29T19:31:39.525Z,99765.09
2022-12-29T19:34:15.248Z,99779.81
2022-12-29T19:36:47.163Z,99738.22
2022-12-29T19:39:19.231Z,99764.28
2022-12-29T19:41:51.083Z,99775.56
2022-12-29T19:44:22.984Z,99772.88
2022-12-29T19:46:54.887Z,99770.59
2022-12-29T19:49:26.849Z,99763.03
2022-12-29T19:51:59.071Z,99777.72
2022-12-29T19:54:31.089Z,99772.44
2022-12-29T19:57:03.029Z,99774.63
2022-12-29T19:59:35.025Z,99778.44
2022-12-29T20:02:07.515Z,99778.44
2022-12-29T20:04:39.603Z,99757.47
2022-12-29T20:07:17.267Z,99775.34
2022-12-29T20:09:50.004Z,99772.34
2022-12-29T20:12:27.354Z,99764.59
2022-12-29T20:15:01.279Z,99776.59
2022-12-29T20:18:10.619Z,99743.28
2022-12-29T20:20:25.635Z,99745.69
2022-12-29T20:22:58.123Z,99774.31
2022-12-29T20:25:47.561Z,99770.50
2022-12-29T20:28:19.772Z,99747.94
2022-12-29T20:31:07.120Z,99760.47
2022-12-29T20:33:39.052Z,99767.81
2022-12-29T20:36:15.815Z,99784.88
2022-12-29T20:38:51.800Z,99765.44
2022-12-29T20:41:24.250Z,99758.50
2022-12-29T20:43:56.264Z,99736.28
2022-12-29T20:46:36.460Z,99763.97
2022-12-29T20:49:11.388Z,99747.81
2022-12-29T20:52:17.054Z,99722.50
2022-12-29T20:54:40.031Z,99757.03
2022-12-29T20:57:12.529Z,99768.31
2022-12-29T20:59:44.535Z,99775.03
2022-12-29T21:02:24.582Z,99770.09
2022-12-29T21:05:22.828Z,99766.97
2022-12-29T21:07:48.638Z,99773.47
2022-12-29T21:10:21.940Z,99764.28
2022-12-29T21:12:54.274Z,99767.97
2022-12-29T21:15:26.487Z,99784.00
2022-12-29T21:17:58.502Z,99779.56
2022-12-29T21:20:32.382Z,99761.22
2022-12-29T21:23:04.730Z,99782.53
2022-12-29T21:25:39.653Z,99783.88
2022-12-29T21:28:12.654Z,99783.34
2022-12-29T21:30:44.814Z,99782.34
2022-12-29T21:33:18.217Z,99786.13
2022-12-29T21:35:50.146Z,99776.41
2022-12-29T21:38:21.973Z,99785.09
2022-12-29T21:40:53.876Z,99777.56
2022-12-29T21:43:25.807Z,99737.31
2022-12-29T21:45:57.733Z,99772.69
2022-12-29T21:48:30.450Z,99760.28
2022-12-29T21:51:30.597Z,99766.50
2022-12-29T21:54:21.420Z,99767.34
2022-12-29T21:56:53.351Z,99766.72
2022-12-29T21:59:43.914Z,99766.19
2022-12-29T22:02:52.783Z,99777.03
2022-12-29T22:05:43.449Z,99791.59
2022-12-29T22:08:34.216Z,99762.44
2022-12-29T22:11:28.084Z,99792.69
2022-12-29T22:14:01.736Z,99775.34
2022-12-29T22:16:33.796Z,99790.09
2022-12-29T22:19:05.843Z,99787.72
2022-12-29T22:21:37.939Z,99784.50
2022-12-29T22:24:10.280Z,99790.88
2022-12-29T22:26:42.272Z,99783.31
2022-12-29T22:29:14.162Z,99780.03
2022-12-29T22:31:46.076Z,99777.34
2022-12-29T22:34:18.446Z,99771.66
2022-12-29T22:36:50.413Z,99786.00
2022-12-29T22:39:22.363Z,99814.13
2022-12-29T22:41:54.292Z,99797.63
2022-12-29T22:44:26.281Z,99799.50
2022-12-29T22:46:58.279Z,99804.44
2022-12-29T22:49:30.315Z,99808.63
2022-12-29T22:52:03.298Z,99824.94
2022-12-29T22:54:35.256Z,99811.31
2022-12-29T22:57:07.253Z,99802.84
2022-12-29T22:59:40.448Z,99804.97
2022-12-29T23:02:12.586Z,99816.47
2022-12-29T23:05:02.953Z,99823.28
2022-12-29T23:07:36.643Z,99829.22
2022-12-29T23:10:08.833Z,99824.81
2022-12-29T23:12:40.823Z,99830.41
2022-12-29T23:15:12.851Z,99826.97
2022-12-29T23:17:44.833Z,99819.56
2022-12-29T23:20:16.798Z,99813.38
2022-12-29T23:22:48.689Z,99767.34
2022-12-29T23:25:20.564Z,99807.66
2022-12-29T23:27:52.456Z,99778.75
2022-12-29T23:30:24.430Z,99822.81
2022-12-29T23:32:56.572Z,99812.78
2022-12-29T23:35:28.623Z,99823.66
2022-12-29T23:38:00.572Z,99838.00
2022-12-29T23:40:32.510Z,99831.28
2022-12-29T23:43:04.514Z,99819.81
2022-12-29T23:45:37.932Z,99834.47
2022-12-29T23:48:10.347Z,99826.06
2022-12-29T23:50:43.157Z,99839.50
2022-12-29T23:53:15.177Z,99844.13
2022-12-29T23:55:53.695Z,99841.44
2022-12-29T23:58:25.586Z,99808.81
